Portada
METAR-TAF:

METAR-TAF

Aeropuertos :

Aeropuerto Internacional de Auckland

Auckland, Nueva Zelanda

latitud: 37-01S, longitud: 174-48E, altitud: 7 m

Observación

El informe se hizo hace 33 minutos, a las 03:00 UTC
Viento 11 kt del noreste
Temperatura 18°C
Humedad 83%
Presión 1029 hPa
Visibilidad 10 km o más
lluvia ligera

METAR: NZAA 080300Z AUTO 04011KT 9999 -RA FEW028/// SCT070/// 18/15 Q1029 NOSIG

Hora: 15:33 (03:33 UTC)

Pronóstico

El informe se hizo hace 3 horas y 57 minutos, a las 23:36 UTC
Pronóstico válido del 08 a las 00 UTC al 09 a las 00 UTC
Viento 15 kt del noreste
Visibilidad 10 km o más
Nubes dispersas a una altura de 2500 ft
Cielo nuboso a una altura de 4500 ft
chaparrones de lluvia
Evolucionando progresivamente
del 08 a las 08 UTC al 08 a las 10 UTC
Viento 5 kt del norte

TAF: NZAA 072336Z 0800/0900 04015KT 9999 -SHRA SCT025 BKN045 BECMG 0808/0810 01005KT

Observaciones y pronósticos meteorológicos de más de 4000 aeropuertos (mensajes METAR y TAF).

Los puntos amarillos y rojos representan las estaciones disponibles.

Ponga el ratón en el punto deseado para ver el nombre de la estación.

Haga clic para ver las observaciones y los pronósticos meteorológicos.

Para cambiar el mapa : haga clic en los botones verdes con una cruz de color negro para hacer un zoom, en el botón verde con un guión para alejar o en las flechas verdes para mapas adyacentes.


METAR-TAF: